Ulsteinvik  Ulsteinvik


Beaufortskalaen  Beaufortskalaen


Clouds and precipitation  Clouds and precipitation


Nedbørsradar more information rain snow radar


Ingen spesiell oppmerksomhet om været er nødvendig.    Det er ingen advarsler

Nære METAR rapporter

   
ENAL - Ålesund
oppdatert: 25-01-2021 18:50
Lett snø, Overskyet  
Lett snø, Overskyet  
   Vind: Sør 2.1 m/s
Vind: Sør 2.1 m/s
Temperatur: 1°C
Wind Chill: -1°C
Duggpunkt: 0°C
Fuktighet: 93%
Barometer: 1003 hPa
Skyer: Overskyet
Sikt: More than 10 km
Skydetaljer: Overskyet 304.8 m
ENAL 251750Z 18004KT 120V220 9999 -SN VV010 01/00 Q1003
ENOV - Ørsta
oppdatert: 25-01-2021 18:50
Byger, Snø, Overskyet  
Byger, Snø, Overskyet  
   Vind: varierer 0.5 m/s
Vind: varierer 0.5 m/s
Temperatur: -1°C
Duggpunkt: -3°C
Fuktighet: 86%
Barometer: 1003 hPa
Skyer: Overskyet
Sikt: 1.8 km
Skydetaljer: Overskyet 365.8 m
ENOV 251750Z VRB01KT 1800 SHSN VV012 M01/M03 Q1003 RMK WIND 2175FT 27009KT
ENML - Tafjorden
oppdatert: 25-01-2021 18:50
Spredte Regnbyger, Snø, For det meste skyet  
Spredte Regnbyger, Snø, For det meste skyet  
   Vind: NØ 2.6 m/s
Vind: NØ 2.6 m/s
Temperatur: -1°C
Wind Chill: -4°C
Duggpunkt: -5°C
Fuktighet: 75%
Barometer: 1003 hPa
Skyer: For det meste skyet
Sikt: More than 10 km
Skydetaljer: få skyer 609.6 m,
For det meste skyet 944.9 m
ENML 251750Z 04005KT 9999 -SHSN FEW020 BKN031 M01/M05 Q1003
ENML - Molde
oppdatert: 25-01-2021 18:50
Spredte Regnbyger, Snø, For det meste skyet  
Spredte Regnbyger, Snø, For det meste skyet  
   Vind: NØ 2.6 m/s
Vind: NØ 2.6 m/s
Temperatur: -1°C
Wind Chill: -4°C
Duggpunkt: -5°C
Fuktighet: 75%
Barometer: 1003 hPa
Skyer: For det meste skyet
Sikt: More than 10 km
Skydetaljer: få skyer 609.6 m,
For det meste skyet 944.9 m
ENML 251750Z 04005KT 9999 -SHSN FEW020 BKN031 M01/M05 Q1003
ENFL - Florø
oppdatert: 25-01-2021 18:50
For det meste skyet  
For det meste skyet  
   Vind: ØSØ 4.1 m/s
Vind: ØSØ 4.1 m/s
Temperatur: 1°C
Wind Chill: -3°C
Duggpunkt: -2°C
Fuktighet: 81%
Barometer: 1004 hPa
Skyer: For det meste skyet
Sikt: More than 10 km
Skydetaljer: få skyer 457.2 m,
Delvis Skyet 609.6 m,
For det meste skyet 762 m
ENFL 251750Z 12008KT 9999 FEW015 SCT020 BKN025 01/M02 Q1004
ENVA - Trondheim
oppdatert: 25-01-2021 18:50
Klart  
Klart  
   Vind: ØSØ 4.1 m/s
Vind: ØSØ 4.1 m/s
Temperatur: -9°C
Wind Chill: -16°C
Duggpunkt: -11°C
Fuktighet: 86%
Barometer: 1003 hPa
Sikt: More than 10 km
Skydetaljer: Klart
ENVA 251750Z 12008KT CAVOK M09/M11 Q1003 NOSIG RMK WIND 670FT 15009KT
ENBR - Bergen
oppdatert: 25-01-2021 18:50
Delvis Skyet  
Delvis Skyet  
   Vind: SØ 1.5 m/s
Vind: SØ 1.5 m/s
Temperatur: -3°C
Wind Chill: -5°C
Duggpunkt: -5°C
Fuktighet: 86%
Barometer: 1004 hPa
Skyer: Delvis Skyet
Sikt: More than 10 km
Skydetaljer: få skyer 609.6 m,
Delvis Skyet 1066.8 m
ENBR 251750Z 13003KT 9999 FEW020TCU SCT035 M03/M05 Q1004 NOSIG RMK WIND 1200FT VRB01KT
ENZV - Stavanger
oppdatert: 25-01-2021 18:50
Klart  
Klart  
   Vind: Nord 1.5 m/s
Vind: Nord 1.5 m/s
Temperatur: -2°C
Wind Chill: -4°C
Duggpunkt: -4°C
Fuktighet: 86%
Barometer: 1004 hPa
Sikt: More than 10 km
Skydetaljer: Klart
ENZV 251750Z 01003KT CAVOK M02/M04 Q1004 NOSIG
ENGM - Oslo
oppdatert: 25-01-2021 18:50
Klart  
Klart  
   Vind: Nord 1 m/s
Vind: Nord 1 m/s
Temperatur: -12°C
Duggpunkt: -13°C
Fuktighet: 92%
Barometer: 1002 hPa
Sikt: More than 10 km
Skydetaljer: Klart
ENGM 251750Z 36002KT CAVOK M12/M13 Q1002 NOSIG
ESSA - Stockholm
oppdatert: 25-01-2021 18:50
Lett snø, Overskyet  
Lett snø, Overskyet  
   Vind: NV 6.2 m/s
Vind: NV 6.2 m/s
Temperatur: -2°C
Wind Chill: -8°C
Duggpunkt: -3°C
Fuktighet: 93%
Barometer: 997 hPa
Skyer: Overskyet
Sikt: More than 10 km
Skydetaljer: Overskyet 365.8 m
ESSA 251750Z 32012KT 9999 -SN OVC012 M02/M03 Q0997 R01R/602174 R08/SNOCLO TEMPO 4000
EKCH - København
oppdatert: 25-01-2021 18:50
Overskyet  
Overskyet  
   Vind: VEST 2.6 m/s
Vind: VEST 2.6 m/s
Temperatur: 2°C
Wind Chill: -1°C
Duggpunkt: 1°C
Fuktighet: 93%
Barometer: 1002 hPa
Skyer: Overskyet
Sikt: More than 10 km
Skydetaljer: Overskyet 883.9 m
EKCH 251750Z AUTO 28005KT 9999 OVC029/// 02/01 Q1002 TEMPO 4000 SHSNRA BKN008 FEW015CB
ENHV - Nordkapp
oppdatert: 25-01-2021 18:50
Lett snø, Overskyet  
Lett snø, Overskyet  
   Vind: ØSØ 3.1 m/s
Vind: ØSØ 3.1 m/s
Temperatur: -4°C
Wind Chill: -8°C
Duggpunkt: -6°C
Fuktighet: 86%
Barometer: 1006 hPa
Skyer: Overskyet
Sikt: 4 km
Skydetaljer: Overskyet 762 m
ENHV 251750Z 11006KT 4000 -SN VV025 M04/M06 Q1006
ENSB - Svalbard
oppdatert: 25-01-2021 18:50
Regn i nærheten, Delvis Skyet  
Regn i nærheten, Delvis Skyet  
   Vind: ØSØ 10.3 m/s
Vind: ØSØ 10.3 m/s
Temperatur: -9°C
Wind Chill: -19°C
Duggpunkt: -14°C
Fuktighet: 67%
Barometer: 1031 hPa
Skyer: Delvis Skyet
Sikt: More than 10 km
Skydetaljer: få skyer 457.2 m,
Delvis Skyet 1066.8 m
ENSB 251750Z 11020KT 9999 VCSH FEW015 SCT035 M09/M14 Q1031 RMK WIND 1400FT 09032KT
NZSP - Sørpolen
oppdatert: 25-01-2021 12:50
Ikkje oppdatert
Lette snøkorn, iskrystaller, Overskyet  
Lette snøkorn, iskrystaller, Overskyet  
   Vind: NNV 5.1 m/s
Vind: NNV 5.1 m/s
Temperatur: -27°C
Wind Chill: -39°C
Barometer: 978.7 hPa
Skyer: Overskyet
Sikt: 4.8 km
Skydetaljer: Overskyet 304.8 m
NZSP 251150Z 33010KT 4800 -SG IC OVC010 M27/ A2890 RMK SKWY WNDS ESTMD CLN AIR 35011KT ALL WNDS GRID SDF/HDF
 

Script utviklet av  Saratoga-weather.org Tilrettelagt for malen av  Weerstation Leuven

Utstyr vi bruker:

Værstsjon
Davis VP2+ 24/H Fars, Online-Ups, 4G Backup.

Værprogram
Weather Display

Ekstra utstyr
Custom builds pcs

Provider
Hosted By Pro Isp

Davis VP2+ 24/H Fars, Online-Ups, 4G Backup.

Weather Display

Custom builds pcs

Hosted By Pro Isp